createdAt,value
2022-07-28T00:02:56.524Z,48.87
2022-07-28T00:08:01.476Z,49.27
2022-07-28T00:13:07.390Z,48.43
2022-07-28T00:18:13.331Z,48.47
2022-07-28T00:23:18.196Z,49.27
2022-07-28T00:28:23.247Z,49.77
2022-07-28T00:33:28.587Z,48.47
2022-07-28T00:38:34.226Z,48.68
2022-07-28T00:43:44.006Z,48.48
2022-07-28T00:48:51.674Z,48.47
2022-07-28T00:53:57.646Z,47.93
2022-07-28T00:59:04.523Z,48.38
2022-07-28T01:04:09.994Z,48.23
2022-07-28T01:09:40.450Z,48.93
2022-07-28T01:14:55.602Z,48.00
2022-07-28T01:20:09.695Z,47.83
2022-07-28T01:25:23.990Z,47.80
2022-07-28T01:30:43.515Z,47.13
2022-07-28T01:35:55.070Z,47.87
2022-07-28T01:41:02.322Z,47.70
2022-07-28T01:46:09.392Z,47.77
2022-07-28T01:51:16.620Z,47.78
2022-07-28T01:56:23.191Z,48.10
2022-07-28T02:01:30.339Z,47.17
2022-07-28T02:06:36.446Z,47.37
2022-07-28T02:11:44.594Z,47.40
2022-07-28T02:16:52.927Z,47.23
2022-07-28T02:21:58.586Z,47.80
2022-07-28T02:27:21.102Z,46.87
2022-07-28T02:32:45.458Z,46.97
2022-07-28T02:37:57.414Z,47.17
2022-07-28T02:43:04.238Z,47.40
2022-07-28T02:48:13.432Z,47.10
2022-07-28T02:53:18.932Z,47.63
2022-07-28T02:58:26.429Z,47.13
2022-07-28T03:03:32.845Z,46.70
2022-07-28T03:08:38.225Z,46.88
2022-07-28T03:13:44.213Z,47.07
2022-07-28T03:18:50.403Z,46.45
2022-07-28T03:23:57.082Z,47.17
2022-07-28T03:29:03.879Z,47.13
2022-07-28T03:34:11.155Z,47.30
2022-07-28T03:39:18.814Z,47.83
2022-07-28T03:44:28.955Z,46.63
2022-07-28T03:49:32.850Z,47.37
2022-07-28T03:54:38.221Z,46.73
2022-07-28T03:59:43.221Z,47.03
2022-07-28T04:04:48.985Z,47.53
2022-07-28T04:09:54.043Z,47.53
2022-07-28T04:14:59.562Z,48.50
2022-07-28T04:20:05.233Z,48.13
2022-07-28T04:25:12.850Z,48.63
2022-07-28T04:30:21.328Z,48.33
2022-07-28T04:35:28.218Z,48.50
2022-07-28T04:40:34.535Z,48.67
2022-07-28T04:45:39.960Z,49.23
2022-07-28T04:50:46.936Z,49.73
2022-07-28T04:55:53.623Z,50.03
2022-07-28T05:01:00.603Z,50.03
2022-07-28T05:06:06.678Z,50.85
2022-07-28T05:11:12.441Z,51.00
2022-07-28T05:16:18.283Z,51.03
2022-07-28T05:21:23.438Z,51.57
2022-07-28T05:26:30.677Z,51.70
2022-07-28T05:31:36.522Z,50.83
2022-07-28T05:36:42.491Z,52.60
2022-07-28T05:41:47.746Z,52.67
2022-07-28T05:46:53.466Z,52.63
2022-07-28T05:51:59.643Z,52.05
2022-07-28T05:57:04.982Z,52.13
2022-07-28T06:02:12.794Z,52.30
2022-07-28T06:07:18.131Z,52.33
2022-07-28T06:12:23.783Z,52.15
2022-07-28T06:17:29.764Z,51.68
2022-07-28T06:22:50.108Z,52.30
2022-07-28T06:27:58.290Z,52.80
2022-07-28T06:33:04.841Z,59.43
2022-07-28T06:38:10.475Z,53.37
2022-07-28T06:43:17.529Z,52.62
2022-07-28T06:48:25.841Z,52.88
2022-07-28T06:53:33.488Z,52.80
2022-07-28T06:58:37.383Z,54.07
2022-07-28T07:03:43.272Z,53.17
2022-07-28T07:08:49.131Z,53.87
2022-07-28T07:13:54.468Z,53.27
2022-07-28T07:18:59.681Z,52.90
2022-07-28T07:24:05.330Z,53.43
2022-07-28T07:29:11.446Z,53.60
2022-07-28T07:34:17.515Z,53.97
2022-07-28T07:39:23.355Z,53.70
2022-07-28T07:44:29.061Z,53.90
2022-07-28T07:49:43.435Z,53.90
2022-07-28T07:54:41.780Z,53.70
2022-07-28T07:59:47.771Z,53.68
2022-07-28T08:04:52.769Z,53.83
2022-07-28T08:09:58.352Z,54.25
2022-07-28T08:15:05.172Z,53.70
2022-07-28T08:20:11.794Z,54.27
2022-07-28T08:25:17.715Z,54.30
2022-07-28T08:30:25.245Z,54.07
2022-07-28T08:35:33.683Z,54.73
2022-07-28T08:40:41.346Z,54.40
2022-07-28T08:45:50.093Z,54.77
2022-07-28T08:50:58.322Z,55.00
2022-07-28T08:56:12.397Z,54.67
2022-07-28T09:01:18.547Z,54.87
2022-07-28T09:06:24.583Z,54.63
2022-07-28T09:11:30.704Z,54.90
2022-07-28T09:21:42.255Z,54.35
2022-07-28T09:27:02.361Z,55.00
2022-07-28T09:32:08.683Z,54.93
2022-07-28T09:37:28.680Z,55.20
2022-07-28T09:42:36.730Z,55.13
2022-07-28T09:47:44.102Z,54.83
2022-07-28T09:52:49.455Z,54.70
2022-07-28T09:57:55.755Z,54.63
2022-07-28T10:03:02.391Z,55.23
2022-07-28T10:08:08.058Z,55.40
2022-07-28T10:13:14.099Z,55.30
2022-07-28T10:18:19.465Z,55.40
2022-07-28T10:23:24.920Z,55.10
2022-07-28T10:28:35.643Z,55.30
2022-07-28T10:33:44.604Z,55.90
2022-07-28T10:38:52.335Z,55.47
2022-07-28T10:43:58.622Z,55.47
2022-07-28T10:49:05.058Z,56.03
2022-07-28T10:54:25.136Z,56.23
2022-07-28T11:00:12.140Z,56.60
2022-07-28T11:05:17.666Z,55.80
2022-07-28T11:10:23.691Z,56.28
2022-07-28T11:15:38.258Z,55.90
2022-07-28T11:21:00.444Z,55.87
2022-07-28T11:26:24.324Z,56.67
2022-07-28T11:31:51.704Z,55.88
2022-07-28T11:37:15.034Z,56.50
2022-07-28T11:42:33.940Z,56.00
2022-07-28T11:47:40.094Z,56.63
2022-07-28T11:52:56.676Z,56.05
2022-07-28T11:58:06.024Z,56.43
2022-07-28T12:03:11.754Z,56.70
2022-07-28T12:08:18.071Z,56.12
2022-07-28T12:13:27.850Z,56.47
2022-07-28T12:18:33.975Z,56.53
2022-07-28T12:23:45.763Z,56.67
2022-07-28T12:28:55.234Z,56.60
2022-07-28T12:34:06.357Z,56.23
2022-07-28T12:39:13.387Z,56.50
2022-07-28T12:49:23.482Z,58.13
2022-07-28T12:59:36.620Z,56.23
2022-07-28T13:04:50.127Z,56.47
2022-07-28T13:10:07.355Z,57.00
2022-07-28T13:15:17.769Z,57.13
2022-07-28T13:20:24.677Z,56.67
2022-07-28T13:25:30.553Z,56.33
2022-07-28T13:30:37.227Z,56.73
2022-07-28T13:35:42.394Z,56.33
2022-07-28T13:40:47.858Z,56.02
2022-07-28T13:50:57.444Z,56.48
2022-07-28T13:56:02.581Z,56.65
2022-07-28T14:01:08.729Z,56.73
2022-07-28T14:06:13.936Z,56.68
2022-07-28T14:16:25.079Z,56.20
2022-07-28T14:21:31.455Z,56.75
2022-07-28T14:26:38.356Z,57.30
2022-07-28T14:31:44.048Z,57.10
2022-07-28T14:36:50.818Z,57.58
2022-07-28T14:41:56.055Z,57.00
2022-07-28T14:47:01.405Z,56.60
2022-07-28T14:57:10.580Z,56.85
2022-07-28T15:02:18.198Z,57.00
2022-07-28T15:07:23.575Z,56.90
2022-07-28T15:12:29.603Z,56.77
2022-07-28T15:17:36.896Z,56.20
2022-07-28T15:22:42.389Z,56.60
2022-07-28T15:27:47.571Z,56.85
2022-07-28T15:32:56.043Z,56.90
2022-07-28T15:38:01.440Z,55.83
2022-07-28T15:43:06.307Z,55.87
2022-07-28T15:48:11.364Z,56.53
2022-07-28T15:53:18.539Z,56.48
2022-07-28T15:58:26.770Z,56.27
2022-07-28T16:03:32.122Z,56.05
2022-07-28T16:08:37.743Z,55.98
2022-07-28T16:13:43.775Z,56.50
2022-07-28T16:18:50.361Z,55.90
2022-07-28T16:23:56.301Z,56.20
2022-07-28T16:29:02.602Z,56.95
2022-07-28T16:34:07.925Z,56.33
2022-07-28T16:39:12.842Z,55.67
2022-07-28T16:44:20.043Z,56.45
2022-07-28T16:49:25.530Z,56.40
2022-07-28T16:54:31.669Z,56.20
2022-07-28T16:59:48.505Z,55.87
2022-07-28T17:04:44.337Z,56.10
2022-07-28T17:09:49.448Z,55.73
2022-07-28T17:14:54.641Z,55.57
2022-07-28T17:20:02.032Z,55.75
2022-07-28T17:25:28.403Z,55.40
2022-07-28T17:30:15.767Z,55.75
2022-07-28T17:35:34.966Z,55.38
2022-07-28T17:40:28.699Z,55.77
2022-07-28T17:45:34.798Z,54.67
2022-07-28T17:50:40.450Z,54.77
2022-07-28T17:56:00.614Z,55.05
2022-07-28T18:00:54.918Z,55.17
2022-07-28T18:06:00.210Z,55.53
2022-07-28T18:11:06.558Z,54.93
2022-07-28T18:16:12.286Z,54.83
2022-07-28T18:21:18.541Z,54.33
2022-07-28T18:26:23.719Z,54.03
2022-07-28T18:31:28.935Z,55.20
2022-07-28T18:36:35.130Z,54.27
2022-07-28T18:41:47.042Z,55.58
2022-07-28T18:46:47.468Z,54.40
2022-07-28T18:51:54.098Z,54.47
2022-07-28T18:57:00.189Z,54.07
2022-07-28T19:02:05.516Z,54.35
2022-07-28T19:07:11.781Z,55.50
2022-07-28T19:12:17.161Z,54.08
2022-07-28T19:17:26.080Z,54.13
2022-07-28T19:22:29.863Z,54.67
2022-07-28T19:27:36.501Z,54.00
2022-07-28T19:32:42.160Z,54.20
2022-07-28T19:37:47.530Z,57.77
2022-07-28T19:42:53.561Z,56.07
2022-07-28T19:47:59.071Z,55.15
2022-07-28T19:53:05.442Z,55.67
2022-07-28T19:58:11.697Z,56.13
2022-07-28T20:04:00.842Z,55.77
2022-07-28T20:08:30.193Z,53.98
2022-07-28T20:13:37.646Z,55.10
2022-07-28T20:18:43.925Z,54.23
2022-07-28T20:23:49.567Z,54.17
2022-07-28T20:28:58.004Z,54.47
2022-07-28T20:34:04.717Z,54.30
2022-07-28T20:39:34.453Z,54.60
2022-07-28T20:44:29.791Z,54.30
2022-07-28T20:49:25.636Z,53.87
2022-07-28T20:54:31.007Z,53.60
2022-07-28T20:59:36.259Z,55.47
2022-07-28T21:04:41.234Z,54.03
2022-07-28T21:09:48.609Z,54.10
2022-07-28T21:14:54.524Z,54.23
2022-07-28T21:19:59.474Z,53.47
2022-07-28T21:25:05.190Z,52.53
2022-07-28T21:30:12.249Z,53.57
2022-07-28T21:35:17.829Z,53.33
2022-07-28T21:40:25.025Z,52.80
2022-07-28T21:45:30.318Z,53.10
2022-07-28T21:50:37.747Z,53.37
2022-07-28T21:55:42.975Z,52.77
2022-07-28T22:00:48.967Z,52.33
2022-07-28T22:05:54.670Z,54.27
2022-07-28T22:11:00.565Z,53.27
2022-07-28T22:16:05.875Z,53.57
2022-07-28T22:21:12.843Z,53.73
2022-07-28T22:26:19.640Z,54.67
2022-07-28T22:31:25.703Z,54.83
2022-07-28T22:36:30.742Z,53.20
2022-07-28T22:41:36.133Z,54.50
2022-07-28T22:46:41.119Z,53.87
2022-07-28T22:51:49.192Z,54.33
2022-07-28T22:56:54.949Z,52.97
2022-07-28T23:01:59.948Z,53.60
2022-07-28T23:07:04.844Z,52.73
2022-07-28T23:12:12.346Z,52.50
2022-07-28T23:17:17.922Z,54.03
2022-07-28T23:22:23.600Z,53.80
2022-07-28T23:27:29.099Z,54.40
2022-07-28T23:32:34.134Z,54.40
2022-07-28T23:37:39.809Z,54.53
2022-07-28T23:42:45.225Z,53.83
2022-07-28T23:47:52.872Z,53.50
2022-07-28T23:52:57.496Z,53.83
2022-07-28T23:58:04.306Z,53.30
